Hull, TX

10:27 AM CST on January 28, 2015 (GMT -0600)
Devers Woods | Change Station
CLOSE
Current Station
Personal Weather Station
Location: Devers, TX
Elevation: 62 ft
Nearby Weather Stations

Elev 62 ft 30.00 °N, 94.59 °W | Updated 14 seconds ago

Clear
Clear
67.3 °F
Feels Like 67.3 °F
N
5.6
Wind Variable Wind from SSE
Gusts 7.4 mph

Today
High -- | Low -- °F
--% Chance of Precip.
Yesterday
High -- | Low -- °F
Precip. -- in
7:11 AM 5:52 PM
Waxing Gibbous, 66% visible
Pressure 30.24 in
Visibility 7.0 miles
Clouds Clear
Dew Point 46 °F
Humidity 47%
Rainfall 0.00 in
Snow Depth Not available.
UV 3 out of 12
Pollen 7.30 out of 12
Air Quality Not available.
Flu Activity Not available.
METAR K6R3 281614Z AUTO 16004KT 7SM CLR 19/10 A3024 RMK AO2

More Conditions Fewer Conditions

Pressure 30.24 in
Visibility 7.0 miles
Clouds Clear
Dew Point 46 °F
Humidity 47%
Rainfall 0.00 in
Snow Depth Not available.
UV 3 out of 12
Pollen 7.30 out of 12
Air Quality Not available.
Flu Activity Not available.
METAR K6R3 281614Z AUTO 16004KT 7SM CLR 19/10 A3024 RMK AO2

More Conditions Fewer Conditions

10-Day Weather Forecast

Almanac

Astronomy

Jan. 28, 2015 Rise Set
Actual Time
Civil Twilight
Nautical Twilight
Astronomical Twilight
Moon
Length of Visible Light
Length of Day
Tomorrow will be .
, % of the Moon is Illuminated

Today's Extremes

State Highs State Lows

Community

WunderPhotos

Upload Photos

1,791,193 photos uploaded!

WunderBlogs® & News

Nearby

Air Quality

  Air Quality AQ Index Pollutant
Not available.

Snow Depth

Station Depth Elevation

Earthquake Activity

City Distance Mag. Time & Date
Minimum magnitude displayed is 2.5.

Coastal Water Temperatures

Place Temperature

Nearby Weather Stations